Time;durP1;ratioP1;P1;durP2;ratioP2;P2;SDS_P1;SDS_P2;PMS_P1;PMS_P2;Temp;Humidity;BMP_temperature;BMP_pressure;BME280_temperature;BME280_humidity;BME280_pressure;Samples;Min_cycle;Max_cycle;Signal;HPM_P1;HPM_P2
2022/04/22 00:00:37;;;;;;;10.23;5.10;;;;;;;10.79;100.00;100789.63;5203421;28;20030;-71
2022/04/22 00:03:08;;;;;;;9.40;4.88;;;;;;;10.77;100.00;100785.44;5203517;28;20021;-71
2022/04/22 00:05:38;;;;;;;9.32;5.45;;;;;;;10.75;100.00;100787.44;5202706;28;20032;-71
2022/04/22 00:08:09;;;;;;;14.75;5.68;;;;;;;10.71;100.00;100776.22;5203503;28;20021;-71
2022/04/22 00:11:29;;;;;;;14.27;6.18;;;;;;;10.66;100.00;100773.19;5201532;28;20029;-70
2022/04/22 00:13:30;;;;;;;9.02;5.05;;;;;;;10.57;100.00;100783.09;5203081;28;20021;-70
2022/04/22 00:16:02;;;;;;;14.70;5.13;;;;;;;10.50;100.00;100774.03;5203083;28;20030;-71
2022/04/22 00:18:33;;;;;;;14.40;5.10;;;;;;;10.48;100.00;100773.34;5203122;28;20172;-70
2022/04/22 00:21:04;;;;;;;8.63;4.63;;;;;;;10.46;100.00;100778.06;5203404;28;20120;-70
2022/04/22 00:23:34;;;;;;;13.48;5.28;;;;;;;10.47;100.00;100779.72;5203693;28;20041;-71
2022/04/22 00:26:05;;;;;;;14.55;5.50;;;;;;;10.45;100.00;100776.38;5207014;28;20018;-71
2022/04/22 00:28:35;;;;;;;13.07;5.47;;;;;;;10.45;100.00;100778.22;5206968;28;20068;-72
2022/04/22 00:31:06;;;;;;;9.00;5.30;;;;;;;10.45;100.00;100770.19;5207072;28;20111;-70
2022/04/22 00:33:36;;;;;;;12.05;5.53;;;;;;;10.39;100.00;100779.72;5207134;28;20080;-71
2022/04/22 00:36:07;;;;;;;9.15;4.82;;;;;;;10.35;100.00;100778.41;5207284;28;20025;-70
2022/04/22 00:38:37;;;;;;;10.95;5.22;;;;;;;10.29;100.00;100771.84;5201166;28;20075;-71
2022/04/22 00:41:08;;;;;;;8.40;5.15;;;;;;;10.23;100.00;100764.41;5206708;28;20342;-70
2022/04/22 00:43:43;;;;;;;9.40;5.57;;;;;;;10.17;100.00;100765.09;5194055;28;20033;-70
2022/04/22 00:46:13;;;;;;;12.02;5.85;;;;;;;10.13;100.00;100761.88;5206887;28;20483;-71
2022/04/22 00:48:44;;;;;;;10.73;5.63;;;;;;;10.11;100.00;100765.75;5207000;28;20075;-70
2022/04/22 00:51:18;;;;;;;10.35;5.80;;;;;;;10.04;100.00;100762.03;5206739;28;20025;-72
2022/04/22 00:53:52;;;;;;;12.60;6.53;;;;;;;10.00;100.00;100755.34;5206517;28;20388;-69
2022/04/22 00:56:22;;;;;;;15.82;7.05;;;;;;;9.92;100.00;100752.66;5206417;28;20056;-70
2022/04/22 00:58:53;;;;;;;14.52;5.72;;;;;;;9.88;100.00;100746.78;5206455;28;20101;-70
2022/04/22 01:01:24;;;;;;;13.85;6.13;;;;;;;9.84;100.00;100748.97;5207086;28;20044;-70
2022/04/22 01:12:26;;;;;;;10.82;6.53;;;;;;;9.58;100.00;100740.16;5202036;28;20021;-70
2022/04/22 01:14:58;;;;;;;11.65;6.20;;;;;;;9.52;100.00;100733.63;5201890;28;20032;-70
2022/04/22 01:17:29;;;;;;;14.20;7.20;;;;;;;9.49;100.00;100731.28;5206384;28;20021;-70
2022/04/22 01:20:20;;;;;;;16.35;6.78;;;;;;;9.46;100.00;100726.25;5205129;28;20032;-70
2022/04/22 01:22:50;;;;;;;18.95;7.45;;;;;;;9.48;100.00;100728.75;5205884;28;20030;-71
2022/04/22 01:25:39;;;;;;;14.35;7.35;;;;;;;9.46;100.00;100734.28;5206161;28;20041;-70
2022/04/22 01:28:10;;;;;;;14.98;6.78;;;;;;;9.46;100.00;100731.59;5206313;28;20406;-71
2022/04/22 01:30:41;;;;;;;13.93;7.45;;;;;;;9.45;100.00;100727.25;5205903;28;20021;-70
2022/04/22 01:33:11;;;;;;;14.52;7.45;;;;;;;9.37;100.00;100727.19;5205734;28;20029;-69
2022/04/22 01:35:44;;;;;;;15.70;7.75;;;;;;;9.32;100.00;100730.34;5205110;28;20032;-69
2022/04/22 01:38:14;;;;;;;13.82;7.63;;;;;;;9.28;100.00;100726.31;5199940;28;20026;-70
2022/04/22 01:40:45;;;;;;;12.20;7.07;;;;;;;9.21;100.00;100727.97;5205816;28;20028;-70
2022/04/22 01:43:15;;;;;;;17.63;9.13;;;;;;;9.15;100.00;100725.94;5205883;28;20032;-70
2022/04/22 01:45:46;;;;;;;16.90;8.18;;;;;;;9.03;100.00;100722.69;5205392;28;20022;-70
2022/04/22 01:48:18;;;;;;;19.77;9.18;;;;;;;9.00;100.00;100727.53;5205892;28;20498;-70
2022/04/22 01:50:48;;;;;;;17.10;9.05;;;;;;;8.97;100.00;100714.47;5205630;28;20032;-70
2022/04/22 01:53:30;;;;;;;16.98;8.02;;;;;;;8.94;100.00;100717.47;5193341;28;20053;-70
2022/04/22 01:56:00;;;;;;;22.90;9.73;;;;;;;8.90;100.00;100724.13;5205207;28;20142;-70
2022/04/22 01:58:32;;;;;;;18.75;8.98;;;;;;;8.89;100.00;100727.81;5205301;28;20048;-70
2022/04/22 02:01:03;;;;;;;19.98;9.35;;;;;;;8.89;100.00;100727.81;5205347;28;20479;-70
2022/04/22 02:03:34;;;;;;;17.15;9.30;;;;;;;8.86;100.00;100731.63;5205618;28;20027;-70
2022/04/22 02:06:05;;;;;;;17.95;8.75;;;;;;;8.81;100.00;100731.25;5205114;28;20120;-70
2022/04/22 02:08:36;;;;;;;15.88;9.40;;;;;;;8.81;100.00;100728.59;5203889;28;20056;-70
2022/04/22 02:11:08;;;;;;;20.90;9.75;;;;;;;8.76;100.00;100726.38;5203945;28;20391;-69
2022/04/22 02:13:38;;;;;;;16.50;9.25;;;;;;;8.74;100.00;100723.03;5196580;28;20025;-70
2022/04/22 02:16:10;;;;;;;20.08;10.13;;;;;;;8.74;100.00;100716.84;5205301;28;20029;-69
2022/04/22 02:18:42;;;;;;;16.52;9.43;;;;;;;8.71;100.00;100718.00;5205112;28;20048;-69
2022/04/22 02:21:13;;;;;;;17.20;9.98;;;;;;;8.70;100.00;100707.47;5204993;28;20100;-70
2022/04/22 02:23:43;;;;;;;19.42;10.70;;;;;;;8.70;100.00;100713.66;5205142;28;20090;-70
2022/04/22 02:26:16;;;;;;;21.48;10.35;;;;;;;8.71;100.00;100711.81;5204851;28;20037;-70
2022/04/22 02:28:47;;;;;;;21.10;10.90;;;;;;;8.68;100.00;100704.09;5203926;28;20028;-70
2022/04/22 02:31:17;;;;;;;30.27;11.20;;;;;;;8.66;100.00;100708.75;5205042;28;20364;-70
2022/04/22 02:33:48;;;;;;;21.30;11.00;;;;;;;8.62;100.00;100707.41;5204576;28;20025;-69
2022/04/22 02:36:18;;;;;;;25.60;11.60;;;;;;;8.61;100.00;100708.41;5204553;28;20024;-70
2022/04/22 02:38:49;;;;;;;18.23;10.90;;;;;;;8.58;100.00;100709.53;5199577;28;20043;-70
2022/04/22 02:46:57;;;;;;;22.58;12.15;;;;;;;8.42;100.00;100707.59;5191928;28;20074;-69
2022/04/22 02:49:27;;;;;;;19.92;10.52;;;;;;;8.40;100.00;100703.41;5203276;28;20402;-69
2022/04/22 02:51:58;;;;;;;23.25;11.93;;;;;;;8.39;100.00;100693.72;5204539;28;20021;-72
2022/04/22 02:54:30;;;;;;;23.17;12.25;;;;;;;8.39;100.00;100693.72;5203965;28;20067;-70
2022/04/22 02:57:01;;;;;;;22.75;11.75;;;;;;;8.36;100.00;100686.84;5204650;28;20051;-70
2022/04/22 02:59:32;;;;;;;25.73;13.20;;;;;;;8.30;100.00;100690.94;5204351;28;20021;-70
2022/04/22 03:02:03;;;;;;;31.45;12.25;;;;;;;8.27;100.00;100690.41;5204502;28;20482;-70
2022/04/22 03:04:33;;;;;;;24.63;12.15;;;;;;;8.22;100.00;100688.19;5204252;28;20029;-70
2022/04/22 03:07:04;;;;;;;25.52;12.77;;;;;;;8.20;100.00;100690.19;5204060;28;20067;-70
2022/04/22 03:09:34;;;;;;;22.35;12.55;;;;;;;8.16;100.00;100687.97;5191190;28;20025;-71
2022/04/22 03:12:06;;;;;;;22.00;12.68;;;;;;;8.14;100.00;100685.47;5203052;28;20425;-70
2022/04/22 03:14:38;;;;;;;23.65;13.00;;;;;;;8.13;100.00;100680.25;5196899;28;20030;-70
2022/04/22 03:17:08;;;;;;;22.80;12.25;;;;;;;8.16;100.00;100687.97;5204640;28;20040;-70
2022/04/22 03:19:39;;;;;;;27.02;14.40;;;;;;;8.14;100.00;100679.28;5203735;28;20038;-70
2022/04/22 03:22:10;;;;;;;26.70;13.90;;;;;;;8.10;100.00;100678.75;5203970;28;20060;-70
2022/04/22 03:24:41;;;;;;;22.05;13.18;;;;;;;8.08;100.00;100679.88;5203887;28;20071;-70
2022/04/22 03:27:11;;;;;;;25.98;13.85;;;;;;;8.05;100.00;100679.22;5204048;28;20040;-70
2022/04/22 03:29:41;;;;;;;26.58;14.23;;;;;;;8.01;100.00;100679.66;5204120;28;20033;-70
2022/04/22 03:32:12;;;;;;;26.48;14.43;;;;;;;7.94;100.00;100678.63;5203581;28;20049;-69
2022/04/22 03:34:42;;;;;;;28.70;15.35;;;;;;;7.88;100.00;100676.53;5203616;28;20061;-72
2022/04/22 03:37:13;;;;;;;25.98;14.65;;;;;;;7.87;100.00;100680.19;5203995;28;20071;-71
2022/04/22 03:39:43;;;;;;;26.23;15.30;;;;;;;7.89;100.00;100675.56;5198238;28;20068;-70
2022/04/22 03:42:14;;;;;;;32.45;14.43;;;;;;;7.87;100.00;100670.34;5203759;28;20026;-71
2022/04/22 03:44:44;;;;;;;31.83;15.65;;;;;;;7.83;100.00;100674.34;5203366;28;20373;-70
2022/04/22 03:47:15;;;;;;;30.35;15.48;;;;;;;7.82;100.00;100682.50;5203952;28;20064;-70
2022/04/22 03:49:45;;;;;;;29.95;16.30;;;;;;;7.77;100.00;100677.59;5203698;28;20033;-71
2022/04/22 03:52:16;;;;;;;30.95;16.33;;;;;;;7.76;100.00;100675.94;5204011;28;20030;-71
2022/04/22 03:54:47;;;;;;;27.00;16.08;;;;;;;7.74;100.00;100675.25;5203458;28;20029;-71
2022/04/22 04:00:07;;;;;;;27.52;15.38;;;;;;;7.68;100.00;100678.50;5195797;28;20017;-70
2022/04/22 04:02:37;;;;;;;33.75;17.92;;;;;;;7.68;100.00;100674.03;5207901;28;20031;-70
2022/04/22 04:05:08;;;;;;;32.17;16.50;;;;;;;7.66;100.00;100683.16;5207668;28;20021;-71
2022/04/22 04:07:39;;;;;;;33.92;15.93;;;;;;;7.65;100.00;100686.84;5207417;28;20489;-70
2022/04/22 04:15:57;;;;;;;34.88;17.75;;;;;;;7.55;100.00;100675.38;5206968;28;20080;-70
2022/04/22 04:18:31;;;;;;;34.40;17.15;;;;;;;7.51;100.00;100675.69;5207633;28;20402;-69
2022/04/22 04:23:53;;;;;;;35.47;17.17;;;;;;;7.49;100.00;100688.34;5207310;28;20402;-70
2022/04/22 04:26:25;;;;;;;35.78;18.40;;;;;;;7.49;100.00;100687.50;5206868;28;20091;-70
2022/04/22 04:28:56;;;;;;;34.42;18.60;;;;;;;7.48;100.00;100683.13;5207410;28;20506;-69
2022/04/22 04:31:27;;;;;;;32.38;18.02;;;;;;;7.42;100.00;100679.25;5207147;28;20009;-71
2022/04/22 04:33:57;;;;;;;36.25;17.50;;;;;;;7.40;100.00;100683.91;5207447;28;20072;-70
2022/04/22 04:36:28;;;;;;;33.38;17.00;;;;;;;7.40;100.00;100681.22;5206670;28;20029;-70
2022/04/22 04:38:59;;;;;;;31.90;15.93;;;;;;;7.38;100.00;100675.22;5200992;28;20089;-70
2022/04/22 04:41:29;;;;;;;33.83;17.88;;;;;;;7.40;100.00;100680.41;5207372;28;20160;-69
2022/04/22 04:44:00;;;;;;;38.28;17.02;;;;;;;7.43;100.00;100680.94;5207229;28;20018;-69
2022/04/22 04:46:30;;;;;;;38.25;17.95;;;;;;;7.46;100.00;100679.78;5206815;28;20060;-70
2022/04/22 04:49:01;;;;;;;36.50;18.55;;;;;;;7.45;100.00;100676.28;5206765;28;20013;-71
2022/04/22 04:51:32;;;;;;;36.17;18.35;;;;;;;7.44;100.00;100669.28;5206810;28;20031;-70
2022/04/22 04:54:02;;;;;;;34.60;17.60;;;;;;;7.47;100.00;100673.47;5206979;28;20018;-70
2022/04/22 04:56:33;;;;;;;36.72;18.95;;;;;;;7.51;100.00;100681.00;5206457;28;20036;-71
2022/04/22 04:59:03;;;;;;;36.10;18.20;;;;;;;7.54;100.00;100677.22;5206667;28;20413;-70
2022/04/22 05:01:34;;;;;;;32.78;17.52;;;;;;;7.56;100.00;100682.41;5206066;28;20491;-69
2022/04/22 05:04:04;;;;;;;34.95;17.48;;;;;;;7.58;100.00;100683.94;5206605;28;20116;-70
2022/04/22 05:06:35;;;;;;;33.70;17.55;;;;;;;7.63;100.00;100675.44;5206298;28;20021;-70
2022/04/22 05:09:06;;;;;;;34.53;18.25;;;;;;;7.68;100.00;100681.19;5203579;28;20018;-71
2022/04/22 05:11:37;;;;;;;30.77;16.80;;;;;;;7.74;100.00;100672.59;5205276;28;20025;-70
2022/04/22 05:14:07;;;;;;;31.95;16.20;;;;;;;7.80;100.00;100671.97;5197132;28;20029;-71
2022/04/22 05:16:38;;;;;;;28.30;16.23;;;;;;;7.84;100.00;100673.34;5205504;28;20029;-70
2022/04/22 05:19:08;;;;;;;32.70;16.20;;;;;;;7.87;100.00;100673.03;5206273;28;20021;-70
2022/04/22 05:21:39;;;;;;;31.02;16.25;;;;;;;7.93;100.00;100679.59;5206357;28;20100;-70
2022/04/22 05:24:09;;;;;;;31.45;17.17;;;;;;;8.00;100.00;100673.50;5205944;28;20056;-70
2022/04/22 05:26:40;;;;;;;33.45;16.48;;;;;;;8.06;100.00;100677.38;5205741;28;20048;-71
2022/04/22 05:32:36;;;;;;;33.67;17.13;;;;;;;8.08;100.00;100679.88;5205252;28;20454;-70
2022/04/22 05:34:49;;;;;;;31.38;15.88;;;;;;;8.22;100.00;100672.16;5205746;28;20021;-71
2022/04/22 05:37:20;;;;;;;38.90;16.63;;;;;;;8.34;100.00;100672.75;5205038;28;20028;-70
2022/04/22 05:39:51;;;;;;;35.60;16.08;;;;;;;8.41;100.00;100679.19;5201473;28;20056;-70
2022/04/22 05:42:21;;;;;;;30.85;15.82;;;;;;;8.45;100.00;100672.53;5206057;28;20060;-70
2022/04/22 05:44:52;;;;;;;30.77;15.50;;;;;;;8.59;100.00;100681.00;5205574;28;20438;-71
2022/04/22 05:47:22;;;;;;;30.85;16.13;;;;;;;8.72;100.00;100670.69;5205666;28;20033;-72
2022/04/22 05:49:52;;;;;;;31.30;15.38;;;;;;;8.89;100.00;100683.16;5205735;28;20022;-71
2022/04/22 05:52:23;;;;;;;29.23;15.55;;;;;;;9.28;100.00;100683.50;5206162;28;20030;-71
2022/04/22 05:54:54;;;;;;;29.35;15.65;;;;;;;9.71;100.00;100694.16;5204462;28;20022;-71
2022/04/22 05:57:25;;;;;;;30.55;15.10;;;;;;;10.09;100.00;100680.16;5205983;28;20092;-71
2022/04/22 05:59:56;;;;;;;25.05;14.38;;;;;;;10.30;100.00;100681.53;5205297;28;20172;-73
2022/04/22 06:02:26;;;;;;;27.73;14.75;;;;;;;10.72;100.00;100685.81;5205402;28;20028;-71
2022/04/22 06:04:57;;;;;;;29.25;14.02;;;;;;;11.02;100.00;100682.38;5205538;28;20041;-71
2022/04/22 06:07:28;;;;;;;23.88;14.23;;;;;;;11.33;100.00;100674.34;5205298;28;20049;-71
2022/04/22 06:12:48;;;;;;;24.80;13.50;;;;;;;11.55;100.00;100664.69;5205875;28;20029;-71
2022/04/22 06:15:19;;;;;;;25.88;14.75;;;;;;;11.78;100.00;100671.91;5205100;28;20041;-70
2022/04/22 06:17:50;;;;;;;22.15;13.27;;;;;;;11.96;100.00;100677.06;5205397;28;20030;-71
2022/04/22 06:20:21;;;;;;;23.48;14.27;;;;;;;12.21;100.00;100665.09;5205004;28;20116;-71
2022/04/22 06:22:51;;;;;;;27.17;14.90;;;;;;;12.40;100.00;100663.75;5205043;28;20105;-72
2022/04/22 06:25:22;;;;;;;25.38;13.02;;;;;;;12.56;100.00;100663.56;5205055;28;20036;-71
2022/04/22 06:27:53;;;;;;;22.85;13.30;;;;;;;12.77;100.00;100667.41;5204954;28;20527;-71
2022/04/22 06:30:24;;;;;;;21.77;12.70;;;;;;;12.72;100.00;100659.03;5205014;28;20064;-72
2022/04/22 06:32:55;;;;;;;29.23;14.55;;;;;;;12.80;100.00;100658.94;5204954;28;20026;-71
2022/04/22 06:35:26;;;;;;;21.63;13.27;;;;;;;13.03;100.00;100662.38;5204229;28;20387;-72
2022/04/22 06:37:57;;;;;;;26.13;13.77;;;;;;;12.81;100.00;100658.78;5199348;28;20053;-71
2022/04/22 06:46:06;;;;;;;26.27;13.40;;;;;;;13.13;100.00;100654.84;5204472;28;20030;-71
2022/04/22 06:48:37;;;;;;;24.52;12.93;;;;;;;13.19;100.00;100654.09;5204649;28;20511;-71
2022/04/22 06:51:08;;;;;;;27.50;13.38;;;;;;;13.31;100.00;100653.66;5204516;28;20031;-71
2022/04/22 06:53:38;;;;;;;29.00;13.57;;;;;;;13.11;100.00;100656.91;5204916;28;20104;-71
2022/04/22 06:56:09;;;;;;;21.50;13.95;;;;;;;13.48;100.00;100661.31;5203854;28;20025;-71
2022/04/22 06:58:41;;;;;;;24.45;12.73;;;;;;;13.78;100.00;100661.22;5204364;28;20063;-72
2022/04/22 07:01:11;;;;;;;29.80;12.80;;;;;;;13.92;100.00;100656.81;5202132;28;20032;-73
2022/04/22 07:03:42;;;;;;;23.92;13.52;;;;;;;13.79;100.00;100654.81;5184388;28;20034;-71
2022/04/22 07:06:13;;;;;;;25.08;12.38;;;;;;;14.19;100.00;100655.19;5201035;28;20108;-72
2022/04/22 07:08:46;;;;;;;28.27;14.13;;;;;;;14.19;100.00;100656.00;5199337;28;20052;-71
2022/04/22 07:11:24;;;;;;;25.00;13.35;;;;;;;14.27;100.00;100662.31;5189247;28;20600;-71
2022/04/22 07:13:58;;;;;;;21.35;13.38;;;;;;;14.85;100.00;100657.56;5192844;28;20040;-71
2022/04/22 07:16:29;;;;;;;24.00;13.32;;;;;;;14.27;100.00;100656.91;5201308;28;20187;-71
2022/04/22 07:19:00;;;;;;;22.73;13.48;;;;;;;13.62;100.00;100650.69;5200731;28;20040;-72
2022/04/22 07:21:31;;;;;;;23.85;14.45;;;;;;;12.88;100.00;100648.09;5201106;28;20029;-72
2022/04/22 07:24:02;;;;;;;26.25;14.63;;;;;;;12.77;100.00;100645.88;5201669;28;20124;-73
2022/04/22 07:26:32;;;;;;;22.05;13.35;;;;;;;13.39;100.00;100651.66;5201429;28;20053;-72
2022/04/22 07:29:08;;;;;;;23.85;12.85;;;;;;;14.24;100.00;100637.38;5201769;28;20028;-72
2022/04/22 07:31:39;;;;;;;21.05;12.77;;;;;;;14.67;100.00;100629.22;5201101;28;20029;-70
2022/04/22 07:34:10;;;;;;;24.88;13.32;;;;;;;14.58;100.00;100643.91;5200355;28;20033;-71
2022/04/22 07:36:43;;;;;;;25.35;13.00;;;;;;;14.91;100.00;100635.16;5201216;28;20040;-71
2022/04/22 07:39:14;;;;;;;23.15;12.82;;;;;;;15.22;100.00;100640.94;5195414;28;20028;-71
2022/04/22 07:41:46;;;;;;;22.10;12.68;;;;;;;15.35;100.00;100639.28;5199900;28;20758;-71
2022/04/22 07:47:09;;;;;;;24.35;14.02;;;;;;;15.71;100.00;100629.06;5203043;28;20040;-71
2022/04/22 07:49:40;;;;;;;22.50;12.93;;;;;;;15.97;100.00;100640.94;5200400;28;20036;-71
2022/04/22 07:52:11;;;;;;;22.85;13.32;;;;;;;15.90;100.00;100643.63;5200314;28;20041;-71
2022/04/22 07:54:41;;;;;;;22.20;14.10;;;;;;;15.48;100.00;100644.75;5199928;28;20028;-71
2022/04/22 07:57:12;;;;;;;25.08;14.85;;;;;;;15.51;100.00;100647.03;5200410;28;20489;-71
2022/04/22 07:59:42;;;;;;;23.33;12.93;;;;;;;15.69;100.00;100641.94;5200252;28;20033;-71
2022/04/22 08:02:13;;;;;;;27.02;14.30;;;;;;;16.24;100.00;100637.19;5197839;28;20029;-71
2022/04/22 08:04:44;;;;;;;26.17;14.50;;;;;;;15.93;100.00;100640.53;5206358;28;20115;-71
2022/04/22 08:07:16;;;;;;;23.48;14.00;;;;;;;15.55;100.00;100629.38;5200977;28;20099;-71
2022/04/22 08:09:46;;;;;;;25.80;14.10;;;;;;;15.29;100.00;100639.06;5202715;28;20032;-71
2022/04/22 08:12:19;;;;;;;22.90;13.95;;;;;;;15.40;100.00;100632.25;5205188;28;20030;-71
2022/04/22 08:14:50;;;;;;;26.23;14.80;;;;;;;15.95;100.00;100635.72;5205882;28;20041;-71
2022/04/22 08:17:21;;;;;;;29.13;14.55;;;;;;;16.22;100.00;100630.34;5212585;28;20053;-71
2022/04/22 08:19:52;;;;;;;27.92;15.52;;;;;;;15.12;100.00;100628.84;5207502;28;20029;-71
2022/04/22 08:22:22;;;;;;;23.50;14.55;;;;;;;14.82;100.00;100633.66;5213720;28;20048;-71
2022/04/22 08:24:52;;;;;;;28.17;14.73;;;;;;;15.38;100.00;100626.22;5216910;28;20025;-71
2022/04/22 08:27:26;;;;;;;23.90;14.52;;;;;;;16.07;100.00;100635.13;5203724;28;20032;-71
2022/04/22 08:29:57;;;;;;;28.58;14.43;;;;;;;16.12;100.00;100627.22;5198257;28;20043;-71
2022/04/22 08:32:28;;;;;;;30.80;15.27;;;;;;;16.40;100.00;100624.28;5199410;28;20049;-71
2022/04/22 08:34:58;;;;;;;25.23;14.90;;;;;;;16.47;100.00;100619.72;5215054;28;20155;-71
2022/04/22 08:37:29;;;;;;;23.92;15.20;;;;;;;16.43;100.00;100610.34;5206937;28;20029;-71
2022/04/22 08:39:59;;;;;;;25.38;15.25;;;;;;;16.72;100.00;100606.38;5209204;28;20440;-71
2022/04/22 08:42:32;;;;;;;30.15;15.23;;;;;;;16.95;100.00;100606.69;5197765;28;20061;-71
2022/04/22 08:45:05;;;;;;;26.08;15.13;;;;;;;17.02;100.00;100607.50;5203948;28;20108;-71
2022/04/22 08:50:29;;;;;;;29.55;12.80;;;;;;;16.77;100.00;100593.00;5201970;28;20021;-72
2022/04/22 08:53:05;;;;;;;24.40;13.48;;;;;;;16.23;100.00;100597.66;5201656;28;20391;-71
2022/04/22 08:55:36;;;;;;;;;;;;;;;15.15;100.00;100594.13;5209453;28;20031;-71
2022/04/22 08:58:08;;;;;;;19.38;11.88;;;;;;;15.21;100.00;100589.75;5213276;28;20359;-71
2022/04/22 09:00:41;;;;;;;18.50;11.35;;;;;;;15.53;100.00;100586.34;5207776;28;20289;-71
2022/04/22 09:03:12;;;;;;;19.52;11.43;;;;;;;15.42;100.00;100589.63;5210983;28;20359;-71
2022/04/22 09:05:44;;;;;;;20.83;12.13;;;;;;;15.24;100.00;100590.19;5200720;28;20027;-71
2022/04/22 09:08:15;;;;;;;21.25;11.95;;;;;;;14.98;100.00;100582.84;5203475;28;20175;-71
2022/04/22 09:10:53;;;;;;;20.17;11.00;;;;;;;14.87;100.00;100579.88;5211180;28;20097;-71
2022/04/22 09:13:26;;;;;;;22.00;10.60;;;;;;;15.37;100.00;100583.19;5200977;28;20838;-71
2022/04/22 09:15:58;;;;;;;21.70;9.35;;;;;;;15.28;100.00;100577.94;5202636;28;20394;-71
2022/04/22 09:18:30;;;;;;;15.85;9.30;;;;;;;14.66;100.00;100586.19;5201779;28;20032;-71
2022/04/22 09:21:02;;;;;;;21.05;10.18;;;;;;;14.51;100.00;100575.53;5212730;28;20030;-71
2022/04/22 09:23:34;;;;;;;16.52;9.65;;;;;;;14.39;100.00;100582.47;5201809;28;20017;-71
2022/04/22 09:26:06;;;;;;;18.45;10.05;;;;;;;14.62;100.00;100583.06;5204610;28;20487;-72
2022/04/22 09:28:39;;;;;;;17.35;10.63;;;;;;;15.10;100.00;100574.97;5202966;28;20396;-71
2022/04/22 09:31:09;;;;;;;20.30;10.40;;;;;;;15.44;100.00;100574.03;5214260;28;20025;-71
2022/04/22 09:33:58;;;;;;;17.73;10.50;;;;;;;15.49;100.00;100571.56;5208249;28;20083;-71
2022/04/22 09:42:38;;;;;;;15.05;10.05;;;;;;;14.95;100.00;100548.13;5200603;28;20025;-71
2022/04/22 09:45:09;;;;;;;18.67;9.68;;;;;;;14.90;100.00;100555.16;5200866;28;20036;-70
2022/04/22 09:47:40;;;;;;;20.30;9.60;;;;;;;15.62;100.00;100543.72;5201919;28;20041;-71
2022/04/22 09:50:12;;;;;;;17.33;10.52;;;;;;;16.33;100.00;100548.50;5210872;28;20540;-71
2022/04/22 09:52:46;;;;;;;19.35;10.95;;;;;;;16.87;100.00;100550.03;5201352;28;20036;-71
2022/04/22 09:55:17;;;;;;;21.20;11.32;;;;;;;16.92;100.00;100544.81;5217520;28;20044;-71
2022/04/22 09:58:03;;;;;;;19.42;12.20;;;;;;;16.62;100.00;100546.31;5205074;28;20367;-71
2022/04/22 10:00:34;;;;;;;18.02;10.48;;;;;;;15.51;100.00;100549.72;5200612;28;20032;-71
2022/04/22 10:03:07;;;;;;;18.02;10.68;;;;;;;15.26;100.00;100541.34;5205488;28;20394;-70
2022/04/22 10:05:38;;;;;;;18.90;11.10;;;;;;;14.78;100.00;100554.91;5202945;28;20100;-71
2022/04/22 10:08:10;;;;;;;20.55;12.20;;;;;;;14.32;100.00;100546.53;5205449;28;20128;-71
2022/04/22 10:10:42;;;;;;;18.02;12.18;;;;;;;14.05;100.00;100551.72;5209005;28;20017;-70
2022/04/22 10:13:16;;;;;;;20.90;13.20;;;;;;;14.01;100.00;100542.38;5199141;28;20029;-71
2022/04/22 10:15:47;;;;;;;23.35;13.40;;;;;;;13.98;100.00;100540.91;5208512;28;20029;-70
2022/04/22 10:18:20;;;;;;;25.25;14.15;;;;;;;13.93;100.00;100543.34;5200457;28;20025;-71
2022/04/22 10:20:51;;;;;;;25.25;14.25;;;;;;;13.98;100.00;100538.19;5217244;28;20151;-70
2022/04/22 10:23:22;;;;;;;26.73;14.52;;;;;;;13.96;100.00;100545.66;5212022;28;20025;-70
2022/04/22 10:25:53;;;;;;;21.30;14.45;;;;;;;13.99;100.00;100542.56;5201259;28;20494;-70
2022/04/22 10:28:27;;;;;;;27.70;15.57;;;;;;;13.86;100.00;100536.25;5209191;28;20034;-70
2022/04/22 10:31:01;;;;;;;28.13;14.85;;;;;;;13.94;100.00;100530.69;5199981;28;20026;-71
2022/04/22 10:33:50;;;;;;;23.70;14.45;;;;;;;14.03;100.00;100523.28;5206002;28;20036;-70
2022/04/22 10:36:21;;;;;;;23.65;13.63;;;;;;;14.21;100.00;100524.47;5200063;28;20022;-71
2022/04/22 10:38:51;;;;;;;22.60;13.73;;;;;;;14.44;100.00;100531.44;5200646;28;20017;-70
2022/04/22 10:41:22;;;;;;;25.55;13.63;;;;;;;14.50;100.00;100530.66;5207241;28;20040;-71
2022/04/22 10:49:39;;;;;;;15.88;9.98;;;;;;;14.42;100.00;100533.50;5207107;28;20494;-71
2022/04/22 10:52:10;;;;;;;17.35;9.05;;;;;;;14.70;100.00;100525.38;5202887;28;20055;-71
2022/04/22 10:55:06;;;;;;;14.20;9.00;;;;;;;14.74;100.00;100523.94;5202751;28;20030;-70
2022/04/22 10:57:39;;;;;;;14.75;8.60;;;;;;;14.89;100.00;100532.72;5200557;28;20017;-71
2022/04/22 11:00:10;;;;;;;13.40;8.57;;;;;;;15.06;100.00;100535.91;5200141;28;20075;-70
2022/04/22 11:02:42;;;;;;;17.20;9.48;;;;;;;14.73;100.00;100527.69;5202619;28;20108;-71
2022/04/22 11:05:30;;;;;;;16.20;10.07;;;;;;;14.61;100.00;100526.56;5203875;28;20116;-70
2022/04/22 11:08:01;;;;;;;20.05;10.25;;;;;;;14.88;100.00;100527.53;5203927;28;20037;-70
2022/04/22 11:10:49;;;;;;;20.70;11.27;;;;;;;15.27;100.00;100519.53;5205139;28;20024;-70
2022/04/22 11:13:40;;;;;;;18.95;11.77;;;;;;;15.31;100.00;100522.66;5197764;28;20039;-71
2022/04/22 11:16:15;;;;;;;19.35;11.48;;;;;;;15.20;100.00;100525.94;5207238;28;20498;-70
2022/04/22 11:19:05;;;;;;;;;;;;;;;14.99;100.00;100519.66;5200613;28;20487;-70
2022/04/22 11:21:36;;;;;;;23.10;11.30;;;;;;;14.90;100.00;100512.78;5211092;28;19920;-71
2022/04/22 11:24:09;;;;;;;20.67;12.25;;;;;;;14.71;100.00;100527.06;5200871;28;20051;-70
2022/04/22 11:26:41;;;;;;;19.13;12.20;;;;;;;14.25;100.00;100531.09;5202542;28;20115;-70
2022/04/22 11:29:13;;;;;;;19.60;12.68;;;;;;;14.11;100.00;100517.75;5199498;28;20036;-70
2022/04/22 11:32:03;;;;;;;21.05;12.85;;;;;;;14.16;100.00;100515.31;5199354;28;20284;-70
2022/04/22 11:35:13;;;;;;;22.70;13.90;;;;;;;14.14;100.00;100515.47;5199518;28;20103;-70
2022/04/22 11:37:43;;;;;;;23.20;13.07;;;;;;;14.32;100.00;100514.16;5198182;28;20040;-70
2022/04/22 11:40:18;;;;;;;19.88;14.02;;;;;;;14.44;100.00;100520.63;5202150;28;20383;-71
2022/04/22 11:42:50;;;;;;;21.55;12.40;;;;;;;14.65;100.00;100517.03;5201352;28;20029;-71
2022/04/22 11:45:21;;;;;;;17.00;12.07;;;;;;;15.21;100.00;100517.66;5201076;28;20498;-71
2022/04/22 11:47:51;;;;;;;22.45;11.82;;;;;;;15.23;100.00;100510.19;5199318;28;20045;-71
2022/04/22 11:50:24;;;;;;;20.00;12.13;;;;;;;15.06;100.00;100503.50;5196686;28;20032;-71
2022/04/22 11:52:56;;;;;;;22.52;11.68;;;;;;;15.22;100.00;100513.09;5199341;28;20037;-71
2022/04/22 11:55:27;;;;;;;18.33;11.10;;;;;;;15.24;100.00;100500.19;5212316;28;20044;-71
2022/04/22 11:58:00;;;;;;;15.50;10.10;;;;;;;15.45;100.00;100507.28;5200212;28;20529;-71
2022/04/22 12:06:27;;;;;;;15.73;9.82;;;;;;;15.99;100.00;100504.41;5202885;28;20387;-71
2022/04/22 12:09:00;;;;;;;20.30;10.82;;;;;;;15.77;100.00;100495.69;5212142;28;20441;-71
2022/04/22 12:11:41;;;;;;;18.65;10.20;;;;;;;15.91;100.00;100498.38;5208650;28;20032;-71
2022/04/22 12:14:21;;;;;;;17.60;9.25;;;;;;;15.66;100.00;100496.34;5197627;28;20401;-70
2022/04/22 12:17:11;;;;;;;14.35;9.43;;;;;;;15.81;100.00;100490.69;5203775;28;20620;-70
2022/04/22 12:19:42;;;;;;;19.48;10.02;;;;;;;15.86;100.00;100487.34;5200009;28;20044;-71
2022/04/22 12:22:13;;;;;;;16.77;10.45;;;;;;;16.14;100.00;100487.13;5207988;28;20025;-71
2022/04/22 12:25:22;;;;;;;13.63;9.13;;;;;;;16.48;100.00;100485.97;5209699;28;20032;-71
2022/04/22 12:28:13;;;;;;;15.45;9.82;;;;;;;16.66;100.00;100480.69;5206976;28;20037;-71
2022/04/22 12:30:44;;;;;;;16.88;10.00;;;;;;;16.23;97.86;100469.63;5202694;28;20031;-71